createdAt,value
2019-04-21T00:00:06.240Z,0.36
2019-04-21T00:05:25.943Z,0.05
2019-04-21T00:10:23.385Z,0.49
2019-04-21T00:15:14.547Z,0.22
2019-04-21T00:20:12.672Z,0.23
2019-04-21T00:30:21.404Z,0.80
2019-04-21T00:35:07.712Z,0.60
2019-04-21T00:40:22.222Z,0.82
2019-04-21T00:45:16.222Z,0.59
2019-04-21T00:50:25.697Z,0.44
2019-04-21T00:55:29.282Z,0.62
2019-04-21T01:05:18.654Z,0.64
2019-04-21T01:10:15.030Z,0.23
2019-04-21T01:15:32.746Z,0.85
2019-04-21T01:20:12.978Z,0.99
2019-04-21T01:25:08.940Z,0.39
2019-04-21T01:30:24.939Z,0.30
2019-04-21T01:35:21.509Z,0.46
2019-04-21T01:40:27.321Z,0.00
2019-04-21T01:45:21.590Z,0.00
2019-04-21T01:50:14.301Z,0.05
2019-04-21T01:55:25.107Z,0.81
2019-04-21T02:00:10.402Z,0.58
2019-04-21T02:05:25.865Z,0.19
2019-04-21T02:10:27.015Z,0.00
2019-04-21T02:15:25.058Z,0.00
2019-04-21T02:20:16.636Z,0.27
2019-04-21T02:30:36.088Z,0.06
2019-04-21T02:35:34.096Z,0.00
2019-04-21T03:20:35.793Z,0.63
2019-04-21T03:25:33.797Z,0.47
2019-04-21T03:30:59.543Z,0.81
2019-04-21T03:40:27.340Z,0.30
2019-04-21T03:50:33.078Z,0.40
2019-04-21T04:00:50.266Z,1.47
2019-04-21T04:05:49.346Z,1.69
2019-04-21T04:10:32.039Z,0.83
2019-04-21T04:15:39.474Z,0.33
2019-04-21T04:25:25.258Z,0.53
2019-04-21T04:30:33.949Z,0.01
2019-04-21T04:35:26.292Z,0.00
2019-04-21T04:40:30.916Z,0.00
2019-04-21T04:45:38.704Z,0.31
2019-04-21T04:55:33.775Z,0.16
2019-04-21T05:00:34.857Z,0.36
2019-04-21T05:05:36.284Z,0.03
2019-04-21T05:15:16.177Z,0.00
2019-04-21T05:20:26.160Z,0.00
2019-04-21T05:25:20.844Z,0.00
2019-04-21T05:30:30.680Z,0.13
2019-04-21T05:35:24.563Z,0.54
2019-04-21T05:40:17.404Z,0.37
2019-04-21T05:45:24.198Z,1.06
2019-04-21T05:50:19.404Z,0.24
2019-04-21T05:55:24.663Z,0.00
2019-04-21T06:05:28.395Z,0.05
2019-04-21T06:10:27.136Z,0.15
2019-04-21T06:15:19.807Z,0.54
2019-04-21T06:20:21.077Z,0.89
2019-04-21T06:30:28.952Z,0.57
2019-04-21T06:35:37.776Z,0.26
2019-04-21T06:40:23.124Z,0.24
2019-04-21T06:50:22.671Z,0.48
2019-04-21T06:55:31.189Z,0.52
2019-04-21T07:00:22.384Z,0.68
2019-04-21T07:05:31.095Z,1.00
2019-04-21T07:10:20.995Z,1.16
2019-04-21T07:15:28.294Z,0.69
2019-04-21T07:20:21.473Z,0.83
2019-04-21T07:25:22.550Z,0.76
2019-04-21T07:30:28.018Z,0.38
2019-04-21T07:35:20.737Z,0.81
2019-04-21T07:40:13.495Z,1.02
2019-04-21T07:45:18.014Z,0.66
2019-04-21T07:50:24.197Z,1.06
2019-04-21T08:00:31.130Z,0.90
2019-04-21T08:05:23.897Z,1.19
2019-04-21T08:10:23.022Z,0.84
2019-04-21T08:15:31.027Z,1.03
2019-04-21T08:20:18.731Z,1.31
2019-04-21T08:25:19.543Z,1.81
2019-04-21T08:30:26.154Z,1.21
2019-04-21T08:40:26.241Z,2.13
2019-04-21T08:45:25.486Z,2.01
2019-04-21T08:50:20.928Z,1.77
2019-04-21T08:55:25.316Z,3.50
2019-04-21T09:00:19.775Z,3.31
2019-04-21T09:05:17.726Z,2.95
2019-04-21T09:10:26.945Z,2.50
2019-04-21T09:15:20.253Z,2.99
2019-04-21T09:20:26.553Z,3.21
2019-04-21T09:25:26.513Z,2.37
2019-04-21T09:30:04.920Z,2.96
2019-04-21T09:35:05.683Z,2.76
2019-04-21T09:40:02.587Z,3.12
2019-04-21T09:45:04.138Z,2.59
2019-04-21T09:50:02.799Z,2.10
2019-04-21T09:55:06.973Z,2.61
2019-04-21T10:00:08.826Z,2.02
2019-04-21T10:05:01.912Z,3.00
2019-04-21T10:10:01.513Z,1.90
2019-04-21T10:15:01.922Z,2.53
2019-04-21T10:20:01.103Z,1.79
2019-04-21T10:25:02.847Z,3.19
2019-04-21T10:30:03.575Z,4.03
2019-04-21T10:35:01.541Z,3.55
2019-04-21T10:40:01.170Z,2.06
2019-04-21T10:45:03.316Z,3.13
2019-04-21T10:50:02.409Z,2.00
2019-04-21T10:55:19.136Z,1.35
2019-04-21T11:00:01.514Z,2.34
2019-04-21T11:05:02.701Z,4.12
2019-04-21T11:10:02.491Z,3.29
2019-04-21T11:30:02.342Z,1.83
2019-04-21T11:45:01.327Z,2.44
2019-04-21T16:35:05.353Z,1.54
2019-04-21T16:45:01.125Z,0.97
2019-04-21T16:55:03.460Z,0.95
2019-04-21T17:05:02.498Z,0.50
2019-04-21T17:35:01.928Z,1.48
2019-04-21T17:50:03.148Z,1.60
2019-04-21T18:25:07.036Z,2.12
2019-04-21T18:45:40.279Z,2.26
2019-04-21T19:05:09.109Z,1.22
2019-04-21T19:40:13.203Z,0.71
2019-04-21T19:55:02.497Z,1.22
2019-04-21T20:30:21.058Z,1.19
2019-04-21T20:55:15.536Z,0.86
2019-04-21T21:10:16.923Z,1.50
2019-04-21T21:25:29.026Z,0.53
2019-04-21T21:45:08.757Z,1.06
2019-04-21T22:05:07.257Z,0.74
2019-04-21T22:25:10.014Z,0.29
